sensor_id;sensor_type;location;lat;lon;timestamp;P1;durP1;ratioP1;P2;durP2;ratioP2
10557;SDS011;5327;47.238;-2.304;2022-10-16T11:10:57;21.83;;;3.70;;
10557;SDS011;5327;47.238;-2.304;2022-10-16T11:13:32;9.30;;;2.60;;
10557;SDS011;5327;47.238;-2.304;2022-10-16T11:16:00;11.53;;;3.10;;
10557;SDS011;5327;47.238;-2.304;2022-10-16T11:18:32;12.03;;;2.93;;
10557;SDS011;5327;47.238;-2.304;2022-10-16T11:21:09;5.40;;;1.80;;
10557;SDS011;5327;47.238;-2.304;2022-10-16T11:26:29;9.50;;;2.40;;
10557;SDS011;5327;47.238;-2.304;2022-10-16T11:28:58;14.23;;;4.73;;
10557;SDS011;5327;47.238;-2.304;2022-10-16T11:34:12;7.87;;;2.40;;
10557;SDS011;5327;47.238;-2.304;2022-10-16T11:44:18;17.83;;;2.73;;
10557;SDS011;5327;47.238;-2.304;2022-10-16T11:46:48;15.67;;;2.90;;
10557;SDS011;5327;47.238;-2.304;2022-10-16T11:49:20;14.90;;;2.70;;
10557;SDS011;5327;47.238;-2.304;2022-10-16T11:54:25;12.23;;;3.20;;
10557;SDS011;5327;47.238;-2.304;2022-10-16T11:56:55;12.73;;;2.40;;
10557;SDS011;5327;47.238;-2.304;2022-10-16T11:59:37;12.57;;;2.87;;
10557;SDS011;5327;47.238;-2.304;2022-10-16T12:05:09;20.17;;;4.93;;
10557;SDS011;5327;47.238;-2.304;2022-10-16T12:07:45;15.43;;;3.37;;
10557;SDS011;5327;47.238;-2.304;2022-10-16T12:10:24;26.50;;;6.07;;
10557;SDS011;5327;47.238;-2.304;2022-10-16T12:12:50;10.87;;;2.30;;
10557;SDS011;5327;47.238;-2.304;2022-10-16T12:17:46;8.80;;;2.10;;
10557;SDS011;5327;47.238;-2.304;2022-10-16T12:22:47;10.57;;;3.20;;
10557;SDS011;5327;47.238;-2.304;2022-10-16T12:25:53;18.80;;;3.17;;
10557;SDS011;5327;47.238;-2.304;2022-10-16T12:28:19;13.80;;;3.20;;
10557;SDS011;5327;47.238;-2.304;2022-10-16T12:30:52;10.27;;;2.60;;
10557;SDS011;5327;47.238;-2.304;2022-10-16T12:33:23;10.80;;;2.57;;
10557;SDS011;5327;47.238;-2.304;2022-10-16T12:35:50;11.50;;;2.80;;
10557;SDS011;5327;47.238;-2.304;2022-10-16T12:41:12;11.80;;;2.90;;
10557;SDS011;5327;47.238;-2.304;2022-10-16T12:43:40;15.53;;;3.23;;
10557;SDS011;5327;47.238;-2.304;2022-10-16T12:48:36;16.97;;;3.00;;
10557;SDS011;5327;47.238;-2.304;2022-10-16T12:51:10;4.77;;;1.20;;
10557;SDS011;5327;47.238;-2.304;2022-10-16T12:53:36;13.67;;;2.40;;
10557;SDS011;5327;47.238;-2.304;2022-10-16T13:01:27;8.80;;;3.23;;
10557;SDS011;5327;47.238;-2.304;2022-10-16T13:04:03;6.07;;;1.70;;
10557;SDS011;5327;47.238;-2.304;2022-10-16T13:06:33;9.63;;;1.80;;
10557;SDS011;5327;47.238;-2.304;2022-10-16T13:09:02;7.73;;;1.83;;
10557;SDS011;5327;47.238;-2.304;2022-10-16T13:19:29;11.20;;;3.13;;
10557;SDS011;5327;47.238;-2.304;2022-10-16T13:24:46;9.23;;;2.30;;
10557;SDS011;5327;47.238;-2.304;2022-10-16T13:27:22;7.87;;;1.60;;
10557;SDS011;5327;47.238;-2.304;2022-10-16T13:29:52;14.30;;;2.80;;
10557;SDS011;5327;47.238;-2.304;2022-10-16T13:32:20;11.40;;;2.50;;
10557;SDS011;5327;47.238;-2.304;2022-10-16T13:34:47;6.83;;;2.50;;
10557;SDS011;5327;47.238;-2.304;2022-10-16T13:37:18;8.40;;;2.20;;
10557;SDS011;5327;47.238;-2.304;2022-10-16T13:39:44;11.20;;;2.77;;
10557;SDS011;5327;47.238;-2.304;2022-10-16T13:44:41;8.27;;;2.17;;
10557;SDS011;5327;47.238;-2.304;2022-10-16T13:47:26;11.43;;;2.60;;
10557;SDS011;5327;47.238;-2.304;2022-10-16T13:50:08;7.13;;;2.47;;
10557;SDS011;5327;47.238;-2.304;2022-10-16T13:52:35;11.13;;;2.33;;
10557;SDS011;5327;47.238;-2.304;2022-10-16T13:55:02;15.20;;;3.53;;
10557;SDS011;5327;47.238;-2.304;2022-10-16T13:57:28;16.30;;;4.50;;
10557;SDS011;5327;47.238;-2.304;2022-10-16T13:59:54;9.20;;;2.63;;
10557;SDS011;5327;47.238;-2.304;2022-10-16T14:02:37;9.80;;;3.10;;
10557;SDS011;5327;47.238;-2.304;2022-10-16T14:05:04;18.57;;;4.63;;
10557;SDS011;5327;47.238;-2.304;2022-10-16T14:07:34;9.63;;;3.10;;
10557;SDS011;5327;47.238;-2.304;2022-10-16T14:10:07;9.13;;;2.80;;
10557;SDS011;5327;47.238;-2.304;2022-10-16T14:12:44;10.77;;;2.83;;
10557;SDS011;5327;47.238;-2.304;2022-10-16T14:15:17;9.27;;;3.27;;
10557;SDS011;5327;47.238;-2.304;2022-10-16T14:17:44;5.73;;;2.97;;
10557;SDS011;5327;47.238;-2.304;2022-10-16T14:20:12;11.40;;;4.03;;
10557;SDS011;5327;47.238;-2.304;2022-10-16T14:22:40;9.30;;;4.57;;
10557;SDS011;5327;47.238;-2.304;2022-10-16T14:27:41;16.83;;;5.13;;
10557;SDS011;5327;47.238;-2.304;2022-10-16T14:32:34;24.03;;;5.10;;
10557;SDS011;5327;47.238;-2.304;2022-10-16T14:35:00;11.77;;;4.90;;
10557;SDS011;5327;47.238;-2.304;2022-10-16T14:37:27;16.40;;;4.60;;
10557;SDS011;5327;47.238;-2.304;2022-10-16T14:39:53;10.87;;;6.93;;
10557;SDS011;5327;47.238;-2.304;2022-10-16T14:42:20;18.00;;;6.13;;
10557;SDS011;5327;47.238;-2.304;2022-10-16T14:44:49;12.23;;;6.90;;
10557;SDS011;5327;47.238;-2.304;2022-10-16T14:47:18;13.50;;;7.60;;
10557;SDS011;5327;47.238;-2.304;2022-10-16T14:49:47;16.43;;;6.00;;
10557;SDS011;5327;47.238;-2.304;2022-10-16T14:52:13;15.10;;;6.20;;
10557;SDS011;5327;47.238;-2.304;2022-10-16T14:54:40;20.00;;;7.47;;
10557;SDS011;5327;47.238;-2.304;2022-10-16T14:57:14;16.87;;;6.80;;
10557;SDS011;5327;47.238;-2.304;2022-10-16T14:59:42;17.87;;;8.83;;
10557;SDS011;5327;47.238;-2.304;2022-10-16T15:04:54;18.43;;;8.40;;
10557;SDS011;5327;47.238;-2.304;2022-10-16T15:07:22;13.47;;;6.83;;
10557;SDS011;5327;47.238;-2.304;2022-10-16T15:09:49;20.40;;;7.83;;
10557;SDS011;5327;47.238;-2.304;2022-10-16T15:12:15;17.00;;;6.63;;
10557;SDS011;5327;47.238;-2.304;2022-10-16T15:14:41;13.50;;;6.97;;
10557;SDS011;5327;47.238;-2.304;2022-10-16T15:17:10;16.03;;;6.87;;
10557;SDS011;5327;47.238;-2.304;2022-10-16T15:19:36;18.03;;;8.70;;
10557;SDS011;5327;47.238;-2.304;2022-10-16T15:22:02;12.50;;;7.13;;
10557;SDS011;5327;47.238;-2.304;2022-10-16T15:24:28;12.33;;;7.23;;
10557;SDS011;5327;47.238;-2.304;2022-10-16T15:26:54;16.07;;;7.77;;
10557;SDS011;5327;47.238;-2.304;2022-10-16T15:29:20;19.60;;;7.90;;
10557;SDS011;5327;47.238;-2.304;2022-10-16T15:31:46;15.10;;;8.20;;
10557;SDS011;5327;47.238;-2.304;2022-10-16T15:34:13;12.10;;;7.40;;
10557;SDS011;5327;47.238;-2.304;2022-10-16T15:36:39;16.50;;;7.87;;
10557;SDS011;5327;47.238;-2.304;2022-10-16T15:39:08;21.23;;;7.97;;
10557;SDS011;5327;47.238;-2.304;2022-10-16T15:41:36;31.27;;;9.20;;
10557;SDS011;5327;47.238;-2.304;2022-10-16T15:44:02;20.30;;;9.60;;
10557;SDS011;5327;47.238;-2.304;2022-10-16T15:46:28;23.50;;;9.00;;
10557;SDS011;5327;47.238;-2.304;2022-10-16T15:48:56;24.87;;;9.47;;
10557;SDS011;5327;47.238;-2.304;2022-10-16T15:51:22;24.20;;;8.83;;
10557;SDS011;5327;47.238;-2.304;2022-10-16T15:53:48;23.50;;;9.23;;
10557;SDS011;5327;47.238;-2.304;2022-10-16T15:56:16;34.73;;;10.30;;
10557;SDS011;5327;47.238;-2.304;2022-10-16T15:58:42;25.53;;;9.33;;
10557;SDS011;5327;47.238;-2.304;2022-10-16T16:01:08;24.53;;;9.57;;
10557;SDS011;5327;47.238;-2.304;2022-10-16T16:03:36;20.00;;;9.03;;
10557;SDS011;5327;47.238;-2.304;2022-10-16T16:06:04;16.70;;;8.67;;
10557;SDS011;5327;47.238;-2.304;2022-10-16T16:08:30;19.50;;;9.00;;
10557;SDS011;5327;47.238;-2.304;2022-10-16T16:10:58;21.80;;;9.57;;
10557;SDS011;5327;47.238;-2.304;2022-10-16T16:13:25;18.23;;;8.83;;
10557;SDS011;5327;47.238;-2.304;2022-10-16T16:15:51;23.57;;;10.23;;
10557;SDS011;5327;47.238;-2.304;2022-10-16T16:18:17;24.67;;;10.40;;
10557;SDS011;5327;47.238;-2.304;2022-10-16T16:20:45;23.07;;;9.60;;
10557;SDS011;5327;47.238;-2.304;2022-10-16T16:23:13;27.77;;;11.97;;
10557;SDS011;5327;47.238;-2.304;2022-10-16T16:25:39;26.70;;;10.80;;
10557;SDS011;5327;47.238;-2.304;2022-10-16T16:28:05;24.03;;;10.20;;
10557;SDS011;5327;47.238;-2.304;2022-10-16T16:30:32;25.50;;;10.40;;
10557;SDS011;5327;47.238;-2.304;2022-10-16T16:32:58;22.30;;;9.97;;
10557;SDS011;5327;47.238;-2.304;2022-10-16T16:35:24;27.73;;;10.23;;
10557;SDS011;5327;47.238;-2.304;2022-10-16T16:37:50;27.63;;;11.07;;
10557;SDS011;5327;47.238;-2.304;2022-10-16T16:40:16;30.73;;;11.40;;
10557;SDS011;5327;47.238;-2.304;2022-10-16T16:42:42;26.33;;;11.00;;
10557;SDS011;5327;47.238;-2.304;2022-10-16T16:45:08;18.40;;;10.57;;
10557;SDS011;5327;47.238;-2.304;2022-10-16T16:47:34;21.60;;;11.60;;
10557;SDS011;5327;47.238;-2.304;2022-10-16T16:50:00;20.83;;;11.40;;
10557;SDS011;5327;47.238;-2.304;2022-10-16T16:52:29;20.70;;;10.67;;
10557;SDS011;5327;47.238;-2.304;2022-10-16T16:54:55;21.67;;;10.40;;
10557;SDS011;5327;47.238;-2.304;2022-10-16T16:57:22;27.73;;;9.93;;
10557;SDS011;5327;47.238;-2.304;2022-10-16T16:59:49;16.67;;;10.23;;
10557;SDS011;5327;47.238;-2.304;2022-10-16T17:02:16;22.50;;;10.93;;
10557;SDS011;5327;47.238;-2.304;2022-10-16T17:04:42;27.47;;;11.87;;
10557;SDS011;5327;47.238;-2.304;2022-10-16T17:07:08;29.63;;;13.13;;
10557;SDS011;5327;47.238;-2.304;2022-10-16T17:09:34;20.50;;;11.30;;
10557;SDS011;5327;47.238;-2.304;2022-10-16T17:12:00;24.50;;;12.07;;
10557;SDS011;5327;47.238;-2.304;2022-10-16T17:14:26;22.90;;;10.50;;
10557;SDS011;5327;47.238;-2.304;2022-10-16T17:16:53;20.70;;;11.40;;
10557;SDS011;5327;47.238;-2.304;2022-10-16T17:19:19;29.33;;;12.77;;
10557;SDS011;5327;47.238;-2.304;2022-10-16T17:21:49;23.30;;;11.17;;
10557;SDS011;5327;47.238;-2.304;2022-10-16T17:24:15;29.67;;;13.93;;
10557;SDS011;5327;47.238;-2.304;2022-10-16T17:26:43;31.90;;;14.43;;
10557;SDS011;5327;47.238;-2.304;2022-10-16T17:29:13;25.50;;;12.77;;
10557;SDS011;5327;47.238;-2.304;2022-10-16T17:31:39;29.83;;;13.00;;
10557;SDS011;5327;47.238;-2.304;2022-10-16T17:34:06;30.00;;;12.00;;
10557;SDS011;5327;47.238;-2.304;2022-10-16T17:36:34;32.60;;;13.30;;
10557;SDS011;5327;47.238;-2.304;2022-10-16T17:39:00;27.07;;;11.90;;
10557;SDS011;5327;47.238;-2.304;2022-10-16T17:41:28;25.80;;;13.40;;
10557;SDS011;5327;47.238;-2.304;2022-10-16T17:43:54;27.83;;;13.97;;
10557;SDS011;5327;47.238;-2.304;2022-10-16T17:46:21;35.73;;;15.20;;
10557;SDS011;5327;47.238;-2.304;2022-10-16T17:48:50;33.13;;;15.10;;
10557;SDS011;5327;47.238;-2.304;2022-10-16T17:51:19;30.33;;;14.57;;
10557;SDS011;5327;47.238;-2.304;2022-10-16T17:53:48;29.03;;;13.27;;
10557;SDS011;5327;47.238;-2.304;2022-10-16T17:56:15;31.30;;;13.90;;
10557;SDS011;5327;47.238;-2.304;2022-10-16T17:58:41;36.30;;;13.20;;
10557;SDS011;5327;47.238;-2.304;2022-10-16T18:01:49;31.30;;;16.67;;
10557;SDS011;5327;47.238;-2.304;2022-10-16T18:03:57;22.33;;;12.73;;
10557;SDS011;5327;47.238;-2.304;2022-10-16T18:06:24;43.13;;;14.27;;
10557;SDS011;5327;47.238;-2.304;2022-10-16T18:08:51;27.50;;;14.93;;
10557;SDS011;5327;47.238;-2.304;2022-10-16T18:11:18;34.73;;;15.10;;
10557;SDS011;5327;47.238;-2.304;2022-10-16T18:13:44;30.63;;;15.60;;
10557;SDS011;5327;47.238;-2.304;2022-10-16T18:16:11;29.00;;;13.47;;
10557;SDS011;5327;47.238;-2.304;2022-10-16T18:18:38;24.77;;;13.73;;
10557;SDS011;5327;47.238;-2.304;2022-10-16T18:21:05;36.03;;;14.20;;
10557;SDS011;5327;47.238;-2.304;2022-10-16T18:23:34;30.57;;;13.97;;
10557;SDS011;5327;47.238;-2.304;2022-10-16T18:26:01;26.20;;;13.33;;
10557;SDS011;5327;47.238;-2.304;2022-10-16T18:28:27;26.20;;;13.67;;
10557;SDS011;5327;47.238;-2.304;2022-10-16T18:30:54;34.07;;;13.20;;
10557;SDS011;5327;47.238;-2.304;2022-10-16T18:33:20;31.60;;;13.40;;
10557;SDS011;5327;47.238;-2.304;2022-10-16T18:35:48;30.60;;;14.33;;
10557;SDS011;5327;47.238;-2.304;2022-10-16T18:38:14;26.90;;;13.10;;
10557;SDS011;5327;47.238;-2.304;2022-10-16T18:40:50;19.70;;;13.30;;
10557;SDS011;5327;47.238;-2.304;2022-10-16T18:43:16;16.90;;;12.00;;
10557;SDS011;5327;47.238;-2.304;2022-10-16T18:45:42;30.93;;;12.83;;
10557;SDS011;5327;47.238;-2.304;2022-10-16T18:48:08;28.53;;;12.13;;
10557;SDS011;5327;47.238;-2.304;2022-10-16T18:50:34;30.03;;;13.20;;
10557;SDS011;5327;47.238;-2.304;2022-10-16T18:53:03;22.47;;;12.93;;
10557;SDS011;5327;47.238;-2.304;2022-10-16T18:55:29;24.83;;;14.10;;
10557;SDS011;5327;47.238;-2.304;2022-10-16T18:57:57;26.70;;;13.10;;
10557;SDS011;5327;47.238;-2.304;2022-10-16T19:00:32;34.67;;;12.97;;
10557;SDS011;5327;47.238;-2.304;2022-10-16T19:02:58;39.13;;;15.60;;
10557;SDS011;5327;47.238;-2.304;2022-10-16T19:05:26;20.03;;;11.13;;
10557;SDS011;5327;47.238;-2.304;2022-10-16T19:07:52;39.33;;;13.10;;
10557;SDS011;5327;47.238;-2.304;2022-10-16T19:10:18;27.63;;;13.10;;
10557;SDS011;5327;47.238;-2.304;2022-10-16T19:12:44;16.33;;;10.80;;
10557;SDS011;5327;47.238;-2.304;2022-10-16T19:15:10;33.57;;;12.50;;
10557;SDS011;5327;47.238;-2.304;2022-10-16T19:17:41;27.70;;;10.60;;
10557;SDS011;5327;47.238;-2.304;2022-10-16T19:20:07;21.17;;;10.97;;
10557;SDS011;5327;47.238;-2.304;2022-10-16T19:22:33;37.57;;;12.67;;
10557;SDS011;5327;47.238;-2.304;2022-10-16T19:25:19;25.60;;;10.53;;
10557;SDS011;5327;47.238;-2.304;2022-10-16T19:27:46;28.40;;;11.43;;
10557;SDS011;5327;47.238;-2.304;2022-10-16T19:30:15;32.87;;;14.00;;
10557;SDS011;5327;47.238;-2.304;2022-10-16T19:32:50;34.27;;;14.20;;
10557;SDS011;5327;47.238;-2.304;2022-10-16T19:35:17;26.87;;;12.73;;
10557;SDS011;5327;47.238;-2.304;2022-10-16T19:37:48;37.80;;;13.33;;
10557;SDS011;5327;47.238;-2.304;2022-10-16T19:40:14;29.27;;;12.60;;
10557;SDS011;5327;47.238;-2.304;2022-10-16T19:42:41;24.60;;;10.67;;
10557;SDS011;5327;47.238;-2.304;2022-10-16T19:45:12;35.90;;;13.20;;
10557;SDS011;5327;47.238;-2.304;2022-10-16T19:47:39;32.97;;;12.23;;
10557;SDS011;5327;47.238;-2.304;2022-10-16T19:50:08;28.03;;;11.10;;
10557;SDS011;5327;47.238;-2.304;2022-10-16T19:52:35;29.03;;;12.10;;
10557;SDS011;5327;47.238;-2.304;2022-10-16T19:55:02;33.50;;;13.27;;
10557;SDS011;5327;47.238;-2.304;2022-10-16T19:57:28;30.80;;;13.17;;
10557;SDS011;5327;47.238;-2.304;2022-10-16T20:00:03;28.57;;;13.33;;
10557;SDS011;5327;47.238;-2.304;2022-10-16T20:02:32;27.67;;;12.30;;
10557;SDS011;5327;47.238;-2.304;2022-10-16T20:04:58;19.33;;;11.80;;
10557;SDS011;5327;47.238;-2.304;2022-10-16T20:07:24;19.80;;;11.17;;
10557;SDS011;5327;47.238;-2.304;2022-10-16T20:09:50;46.73;;;16.90;;
10557;SDS011;5327;47.238;-2.304;2022-10-16T20:12:16;22.93;;;10.60;;
10557;SDS011;5327;47.238;-2.304;2022-10-16T20:14:42;19.70;;;9.97;;
10557;SDS011;5327;47.238;-2.304;2022-10-16T20:17:08;19.50;;;10.27;;
10557;SDS011;5327;47.238;-2.304;2022-10-16T20:19:34;24.43;;;11.03;;
10557;SDS011;5327;47.238;-2.304;2022-10-16T20:22:00;26.37;;;11.13;;
10557;SDS011;5327;47.238;-2.304;2022-10-16T20:24:27;24.30;;;10.90;;
10557;SDS011;5327;47.238;-2.304;2022-10-16T20:26:53;30.40;;;12.67;;
10557;SDS011;5327;47.238;-2.304;2022-10-16T20:29:19;29.00;;;12.70;;
10557;SDS011;5327;47.238;-2.304;2022-10-16T20:31:45;34.60;;;10.80;;
10557;SDS011;5327;47.238;-2.304;2022-10-16T20:34:11;24.17;;;13.63;;
10557;SDS011;5327;47.238;-2.304;2022-10-16T20:36:38;21.50;;;11.83;;
10557;SDS011;5327;47.238;-2.304;2022-10-16T20:39:05;21.23;;;10.83;;
10557;SDS011;5327;47.238;-2.304;2022-10-16T20:41:32;20.90;;;11.00;;
10557;SDS011;5327;47.238;-2.304;2022-10-16T20:43:59;30.93;;;11.30;;
10557;SDS011;5327;47.238;-2.304;2022-10-16T20:46:25;26.17;;;12.03;;
10557;SDS011;5327;47.238;-2.304;2022-10-16T20:48:52;23.70;;;11.43;;
10557;SDS011;5327;47.238;-2.304;2022-10-16T20:53:51;36.10;;;12.37;;
10557;SDS011;5327;47.238;-2.304;2022-10-16T20:56:18;31.27;;;13.87;;
10557;SDS011;5327;47.238;-2.304;2022-10-16T20:58:45;31.23;;;12.27;;
10557;SDS011;5327;47.238;-2.304;2022-10-16T21:01:12;29.07;;;10.93;;
10557;SDS011;5327;47.238;-2.304;2022-10-16T21:03:38;30.90;;;12.60;;
10557;SDS011;5327;47.238;-2.304;2022-10-16T21:06:05;30.67;;;11.90;;
10557;SDS011;5327;47.238;-2.304;2022-10-16T21:08:35;31.63;;;12.90;;
10557;SDS011;5327;47.238;-2.304;2022-10-16T21:11:08;27.03;;;13.30;;
10557;SDS011;5327;47.238;-2.304;2022-10-16T21:13:34;20.03;;;10.67;;
10557;SDS011;5327;47.238;-2.304;2022-10-16T21:16:01;24.60;;;12.00;;
10557;SDS011;5327;47.238;-2.304;2022-10-16T21:18:27;28.33;;;11.13;;
10557;SDS011;5327;47.238;-2.304;2022-10-16T21:20:53;27.10;;;12.23;;
10557;SDS011;5327;47.238;-2.304;2022-10-16T21:23:19;27.50;;;12.27;;
10557;SDS011;5327;47.238;-2.304;2022-10-16T21:25:48;27.80;;;12.40;;
10557;SDS011;5327;47.238;-2.304;2022-10-16T21:28:15;28.17;;;12.90;;
10557;SDS011;5327;47.238;-2.304;2022-10-16T21:30:41;23.77;;;13.67;;
10557;SDS011;5327;47.238;-2.304;2022-10-16T21:33:07;22.57;;;10.70;;
10557;SDS011;5327;47.238;-2.304;2022-10-16T21:35:33;24.27;;;12.33;;
10557;SDS011;5327;47.238;-2.304;2022-10-16T21:37:59;25.90;;;12.60;;
10557;SDS011;5327;47.238;-2.304;2022-10-16T21:40:27;32.00;;;11.70;;
10557;SDS011;5327;47.238;-2.304;2022-10-16T21:42:54;22.57;;;12.00;;
10557;SDS011;5327;47.238;-2.304;2022-10-16T21:45:20;28.37;;;13.10;;
10557;SDS011;5327;47.238;-2.304;2022-10-16T21:47:46;28.43;;;12.60;;
10557;SDS011;5327;47.238;-2.304;2022-10-16T21:50:12;26.40;;;11.90;;
10557;SDS011;5327;47.238;-2.304;2022-10-16T21:52:38;30.97;;;11.33;;
10557;SDS011;5327;47.238;-2.304;2022-10-16T21:55:04;30.57;;;11.90;;
10557;SDS011;5327;47.238;-2.304;2022-10-16T21:57:30;26.47;;;11.43;;
10557;SDS011;5327;47.238;-2.304;2022-10-16T21:59:56;34.90;;;14.17;;
10557;SDS011;5327;47.238;-2.304;2022-10-16T22:02:22;28.00;;;14.13;;
10557;SDS011;5327;47.238;-2.304;2022-10-16T22:04:48;31.07;;;14.00;;
10557;SDS011;5327;47.238;-2.304;2022-10-16T22:07:14;37.40;;;13.37;;
10557;SDS011;5327;47.238;-2.304;2022-10-16T22:09:41;31.13;;;13.80;;
10557;SDS011;5327;47.238;-2.304;2022-10-16T22:12:07;27.60;;;14.40;;
10557;SDS011;5327;47.238;-2.304;2022-10-16T22:14:33;23.30;;;12.73;;
10557;SDS011;5327;47.238;-2.304;2022-10-16T22:16:59;36.20;;;13.80;;
10557;SDS011;5327;47.238;-2.304;2022-10-16T22:19:25;33.33;;;16.20;;
10557;SDS011;5327;47.238;-2.304;2022-10-16T22:21:52;26.50;;;13.20;;
10557;SDS011;5327;47.238;-2.304;2022-10-16T22:24:21;27.07;;;14.33;;
10557;SDS011;5327;47.238;-2.304;2022-10-16T22:26:47;38.30;;;15.90;;
10557;SDS011;5327;47.238;-2.304;2022-10-16T22:29:14;42.20;;;16.37;;
10557;SDS011;5327;47.238;-2.304;2022-10-16T22:31:40;34.23;;;15.70;;
10557;SDS011;5327;47.238;-2.304;2022-10-16T22:34:06;50.90;;;16.30;;
10557;SDS011;5327;47.238;-2.304;2022-10-16T22:36:33;36.97;;;14.63;;
10557;SDS011;5327;47.238;-2.304;2022-10-16T22:38:59;31.13;;;13.90;;
10557;SDS011;5327;47.238;-2.304;2022-10-16T22:41:25;33.03;;;14.07;;
10557;SDS011;5327;47.238;-2.304;2022-10-16T22:43:52;39.60;;;15.00;;
10557;SDS011;5327;47.238;-2.304;2022-10-16T22:46:19;26.43;;;13.40;;
10557;SDS011;5327;47.238;-2.304;2022-10-16T22:48:45;29.77;;;14.30;;
10557;SDS011;5327;47.238;-2.304;2022-10-16T22:51:11;27.47;;;14.23;;
10557;SDS011;5327;47.238;-2.304;2022-10-16T22:53:38;38.03;;;14.77;;
10557;SDS011;5327;47.238;-2.304;2022-10-16T22:56:05;31.90;;;14.13;;
10557;SDS011;5327;47.238;-2.304;2022-10-16T22:58:31;31.10;;;13.90;;
10557;SDS011;5327;47.238;-2.304;2022-10-16T23:00:57;26.27;;;13.00;;
10557;SDS011;5327;47.238;-2.304;2022-10-16T23:03:23;33.43;;;13.80;;
10557;SDS011;5327;47.238;-2.304;2022-10-16T23:05:49;27.60;;;14.37;;
10557;SDS011;5327;47.238;-2.304;2022-10-16T23:08:15;24.60;;;15.37;;
10557;SDS011;5327;47.238;-2.304;2022-10-16T23:10:42;31.13;;;14.13;;
10557;SDS011;5327;47.238;-2.304;2022-10-16T23:13:08;26.90;;;13.90;;
10557;SDS011;5327;47.238;-2.304;2022-10-16T23:15:37;31.53;;;14.10;;
10557;SDS011;5327;47.238;-2.304;2022-10-16T23:18:03;32.00;;;14.73;;
10557;SDS011;5327;47.238;-2.304;2022-10-16T23:20:29;24.80;;;13.70;;
10557;SDS011;5327;47.238;-2.304;2022-10-16T23:22:55;22.17;;;13.17;;
10557;SDS011;5327;47.238;-2.304;2022-10-16T23:25:21;25.17;;;13.47;;
10557;SDS011;5327;47.238;-2.304;2022-10-16T23:27:48;30.03;;;12.47;;
10557;SDS011;5327;47.238;-2.304;2022-10-16T23:30:14;22.73;;;12.07;;
10557;SDS011;5327;47.238;-2.304;2022-10-16T23:32:40;23.67;;;11.00;;
10557;SDS011;5327;47.238;-2.304;2022-10-16T23:35:06;24.97;;;11.83;;
10557;SDS011;5327;47.238;-2.304;2022-10-16T23:37:32;25.57;;;12.00;;
10557;SDS011;5327;47.238;-2.304;2022-10-16T23:39:58;29.47;;;12.90;;
10557;SDS011;5327;47.238;-2.304;2022-10-16T23:42:24;34.33;;;13.13;;
10557;SDS011;5327;47.238;-2.304;2022-10-16T23:44:50;31.00;;;13.10;;
10557;SDS011;5327;47.238;-2.304;2022-10-16T23:47:16;31.17;;;12.87;;
10557;SDS011;5327;47.238;-2.304;2022-10-16T23:49:42;32.73;;;13.93;;
10557;SDS011;5327;47.238;-2.304;2022-10-16T23:52:08;25.70;;;12.23;;
10557;SDS011;5327;47.238;-2.304;2022-10-16T23:54:35;29.67;;;14.57;;
10557;SDS011;5327;47.238;-2.304;2022-10-16T23:57:01;28.70;;;13.50;;
10557;SDS011;5327;47.238;-2.304;2022-10-16T23:59:27;35.23;;;14.93;;
